sensor_id;sensor_type;location;lat;lon;timestamp;pressure;altitude;pressure_sealevel;temperature;humidity
73941;BME280;62294;48.554;10.202;2023-09-19T00:00:47;95407.19;;;14.88;100.00
73941;BME280;62294;48.554;10.202;2023-09-19T00:03:15;95412.03;;;14.91;100.00
73941;BME280;62294;48.554;10.202;2023-09-19T00:05:42;95420.28;;;14.90;100.00
73941;BME280;62294;48.554;10.202;2023-09-19T00:08:12;95427.53;;;14.94;100.00
73941;BME280;62294;48.554;10.202;2023-09-19T00:10:42;95430.22;;;14.89;100.00
73941;BME280;62294;48.554;10.202;2023-09-19T00:13:09;95433.94;;;14.88;100.00
73941;BME280;62294;48.554;10.202;2023-09-19T00:15:44;95433.66;;;14.85;100.00
73941;BME280;62294;48.554;10.202;2023-09-19T00:18:19;95449.19;;;14.88;100.00
73941;BME280;62294;48.554;10.202;2023-09-19T00:20:51;95457.19;;;14.83;100.00
73941;BME280;62294;48.554;10.202;2023-09-19T00:23:18;95452.06;;;14.76;100.00
73941;BME280;62294;48.554;10.202;2023-09-19T00:25:46;95460.66;;;14.78;100.00
73941;BME280;62294;48.554;10.202;2023-09-19T00:28:13;95452.06;;;14.76;100.00
73941;BME280;62294;48.554;10.202;2023-09-19T00:30:43;95473.75;;;14.80;100.00
73941;BME280;62294;48.554;10.202;2023-09-19T00:33:10;95487.28;;;14.63;100.00
73941;BME280;62294;48.554;10.202;2023-09-19T00:35:38;95477.88;;;14.56;100.00
73941;BME280;62294;48.554;10.202;2023-09-19T00:38:04;95480.00;;;14.54;100.00
73941;BME280;62294;48.554;10.202;2023-09-19T00:40:32;95475.19;;;14.51;100.00
73941;BME280;62294;48.554;10.202;2023-09-19T00:43:00;95471.66;;;14.45;100.00
73941;BME280;62294;48.554;10.202;2023-09-19T00:45:26;95477.81;;;14.46;100.00
73941;BME280;62294;48.554;10.202;2023-09-19T00:47:55;95470.84;;;14.40;100.00
73941;BME280;62294;48.554;10.202;2023-09-19T00:50:25;95472.38;;;14.36;100.00
73941;BME280;62294;48.554;10.202;2023-09-19T00:52:55;95476.41;;;14.38;100.00
73941;BME280;62294;48.554;10.202;2023-09-19T00:55:24;95481.47;;;14.35;100.00
73941;BME280;62294;48.554;10.202;2023-09-19T00:57:51;95491.63;;;14.33;100.00
73941;BME280;62294;48.554;10.202;2023-09-19T01:00:17;95493.53;;;14.42;100.00
73941;BME280;62294;48.554;10.202;2023-09-19T01:02:47;95493.03;;;14.45;100.00
73941;BME280;62294;48.554;10.202;2023-09-19T01:05:15;95490.91;;;14.47;100.00
73941;BME280;62294;48.554;10.202;2023-09-19T01:07:42;95492.53;;;14.48;100.00
73941;BME280;62294;48.554;10.202;2023-09-19T01:10:12;95502.94;;;14.45;100.00
73941;BME280;62294;48.554;10.202;2023-09-19T01:13:05;95509.34;;;14.44;100.00
73941;BME280;62294;48.554;10.202;2023-09-19T01:20:39;95526.50;;;14.48;100.00
73941;BME280;62294;48.554;10.202;2023-09-19T01:23:18;95525.94;;;14.46;100.00
73941;BME280;62294;48.554;10.202;2023-09-19T01:31:04;95533.69;;;14.47;100.00
73941;BME280;62294;48.554;10.202;2023-09-19T01:33:58;95537.66;;;14.40;100.00
73941;BME280;62294;48.554;10.202;2023-09-19T01:36:37;95546.78;;;14.44;100.00
73941;BME280;62294;48.554;10.202;2023-09-19T01:39:07;95554.84;;;14.49;100.00
73941;BME280;62294;48.554;10.202;2023-09-19T01:42:04;95558.69;;;14.63;100.00
73941;BME280;62294;48.554;10.202;2023-09-19T01:44:53;95560.88;;;14.66;100.00
73941;BME280;62294;48.554;10.202;2023-09-19T01:47:33;95574.81;;;14.73;100.00
73941;BME280;62294;48.554;10.202;2023-09-19T01:50:12;95582.59;;;14.74;100.00
73941;BME280;62294;48.554;10.202;2023-09-19T01:52:59;95576.91;;;14.66;100.00
73941;BME280;62294;48.554;10.202;2023-09-19T01:55:36;95587.28;;;14.57;100.00
73941;BME280;62294;48.554;10.202;2023-09-19T01:58:08;95580.50;;;14.50;100.00
73941;BME280;62294;48.554;10.202;2023-09-19T02:00:37;95582.25;;;14.34;100.00
73941;BME280;62294;48.554;10.202;2023-09-19T02:03:08;95573.69;;;14.32;100.00
73941;BME280;62294;48.554;10.202;2023-09-19T02:05:35;95564.84;;;14.32;100.00
73941;BME280;62294;48.554;10.202;2023-09-19T02:08:01;95566.41;;;14.28;100.00
73941;BME280;62294;48.554;10.202;2023-09-19T02:10:28;95562.63;;;14.29;100.00
73941;BME280;62294;48.554;10.202;2023-09-19T02:12:55;95568.81;;;14.29;100.00
73941;BME280;62294;48.554;10.202;2023-09-19T02:15:22;95564.75;;;14.27;100.00
73941;BME280;62294;48.554;10.202;2023-09-19T02:17:49;95565.84;;;14.26;100.00
73941;BME280;62294;48.554;10.202;2023-09-19T02:20:16;95555.78;;;14.33;100.00
73941;BME280;62294;48.554;10.202;2023-09-19T02:22:43;95564.22;;;14.24;100.00
73941;BME280;62294;48.554;10.202;2023-09-19T02:25:11;95555.94;;;14.26;100.00
73941;BME280;62294;48.554;10.202;2023-09-19T02:27:37;95561.53;;;14.24;100.00
73941;BME280;62294;48.554;10.202;2023-09-19T02:30:04;95559.97;;;14.29;100.00
73941;BME280;62294;48.554;10.202;2023-09-19T02:32:32;95556.88;;;14.37;100.00
73941;BME280;62294;48.554;10.202;2023-09-19T02:35:02;95570.75;;;14.34;100.00
73941;BME280;62294;48.554;10.202;2023-09-19T02:37:31;95564.09;;;14.36;100.00
73941;BME280;62294;48.554;10.202;2023-09-19T02:39:58;95563.47;;;14.29;100.00
73941;BME280;62294;48.554;10.202;2023-09-19T02:42:24;95556.56;;;14.33;100.00
73941;BME280;62294;48.554;10.202;2023-09-19T02:44:51;95559.41;;;14.27;100.00
73941;BME280;62294;48.554;10.202;2023-09-19T02:47:18;95558.09;;;14.29;100.00
73941;BME280;62294;48.554;10.202;2023-09-19T02:49:45;95554.97;;;14.32;100.00
73941;BME280;62294;48.554;10.202;2023-09-19T02:52:12;95564.91;;;14.37;100.00
73941;BME280;62294;48.554;10.202;2023-09-19T02:54:41;95569.16;;;14.38;100.00
73941;BME280;62294;48.554;10.202;2023-09-19T02:57:11;95565.13;;;14.35;100.00
73941;BME280;62294;48.554;10.202;2023-09-19T02:59:38;95563.81;;;14.38;100.00
73941;BME280;62294;48.554;10.202;2023-09-19T03:02:04;95569.44;;;14.36;100.00
73941;BME280;62294;48.554;10.202;2023-09-19T03:04:31;95571.63;;;14.39;100.00
73941;BME280;62294;48.554;10.202;2023-09-19T03:06:59;95584.16;;;14.39;100.00
73941;BME280;62294;48.554;10.202;2023-09-19T03:09:27;95587.88;;;14.38;100.00
73941;BME280;62294;48.554;10.202;2023-09-19T03:11:54;95578.81;;;14.39;100.00
73941;BME280;62294;48.554;10.202;2023-09-19T03:14:20;95576.69;;;14.41;100.00
73941;BME280;62294;48.554;10.202;2023-09-19T03:16:47;95578.75;;;14.34;100.00
73941;BME280;62294;48.554;10.202;2023-09-19T03:19:14;95571.94;;;14.48;100.00
73941;BME280;62294;48.554;10.202;2023-09-19T03:21:41;95573.09;;;14.57;100.00
73941;BME280;62294;48.554;10.202;2023-09-19T03:24:08;95575.81;;;14.62;100.00
73941;BME280;62294;48.554;10.202;2023-09-19T03:26:35;95597.09;;;14.52;100.00
73941;BME280;62294;48.554;10.202;2023-09-19T03:29:04;95582.31;;;14.39;100.00
73941;BME280;62294;48.554;10.202;2023-09-19T03:31:34;95586.88;;;14.44;100.00
73941;BME280;62294;48.554;10.202;2023-09-19T03:34:03;95589.03;;;14.47;100.00
73941;BME280;62294;48.554;10.202;2023-09-19T03:36:30;95584.84;;;14.56;100.00
73941;BME280;62294;48.554;10.202;2023-09-19T03:38:57;95598.78;;;14.58;100.00
73941;BME280;62294;48.554;10.202;2023-09-19T03:41:23;95603.00;;;14.54;100.00
73941;BME280;62294;48.554;10.202;2023-09-19T03:43:50;95592.28;;;14.49;100.00
73941;BME280;62294;48.554;10.202;2023-09-19T03:46:17;95591.72;;;14.47;100.00
73941;BME280;62294;48.554;10.202;2023-09-19T03:48:43;95599.50;;;14.48;100.00
73941;BME280;62294;48.554;10.202;2023-09-19T03:51:10;95596.06;;;14.53;100.00
73941;BME280;62294;48.554;10.202;2023-09-19T03:53:37;95603.53;;;14.51;100.00
73941;BME280;62294;48.554;10.202;2023-09-19T03:56:04;95596.94;;;14.32;100.00
73941;BME280;62294;48.554;10.202;2023-09-19T03:58:31;95600.53;;;14.20;100.00
73941;BME280;62294;48.554;10.202;2023-09-19T04:00:57;95599.44;;;14.16;100.00
73941;BME280;62294;48.554;10.202;2023-09-19T04:03:24;95604.16;;;14.09;100.00
73941;BME280;62294;48.554;10.202;2023-09-19T04:06:01;95594.53;;;14.08;100.00
73941;BME280;62294;48.554;10.202;2023-09-19T04:08:28;95595.22;;;13.99;100.00
73941;BME280;62294;48.554;10.202;2023-09-19T04:10:55;95589.84;;;13.94;100.00
73941;BME280;62294;48.554;10.202;2023-09-19T04:13:23;95592.81;;;13.97;100.00
73941;BME280;62294;48.554;10.202;2023-09-19T04:15:50;95581.63;;;14.00;100.00
73941;BME280;62294;48.554;10.202;2023-09-19T04:18:16;95580.56;;;14.01;100.00
73941;BME280;62294;48.554;10.202;2023-09-19T04:20:48;95580.66;;;14.11;100.00
73941;BME280;62294;48.554;10.202;2023-09-19T04:23:16;95582.25;;;14.12;100.00
73941;BME280;62294;48.554;10.202;2023-09-19T04:25:43;95571.13;;;14.20;100.00
73941;BME280;62294;48.554;10.202;2023-09-19T04:28:10;95567.69;;;14.25;100.00
73941;BME280;62294;48.554;10.202;2023-09-19T04:30:39;95561.84;;;14.28;100.00
73941;BME280;62294;48.554;10.202;2023-09-19T04:33:09;95564.31;;;14.30;100.00
73941;BME280;62294;48.554;10.202;2023-09-19T04:35:35;95579.75;;;14.28;100.00
73941;BME280;62294;48.554;10.202;2023-09-19T04:38:02;95588.09;;;14.31;100.00
73941;BME280;62294;48.554;10.202;2023-09-19T04:40:30;95585.97;;;14.33;100.00
73941;BME280;62294;48.554;10.202;2023-09-19T04:42:56;95587.88;;;14.33;100.00
73941;BME280;62294;48.554;10.202;2023-09-19T04:45:24;95596.50;;;14.40;100.00
73941;BME280;62294;48.554;10.202;2023-09-19T04:47:50;95593.75;;;14.35;100.00
73941;BME280;62294;48.554;10.202;2023-09-19T04:50:17;95596.50;;;14.45;100.00
73941;BME280;62294;48.554;10.202;2023-09-19T04:52:44;95601.84;;;14.40;100.00
73941;BME280;62294;48.554;10.202;2023-09-19T04:55:15;95603.44;;;14.41;100.00
73941;BME280;62294;48.554;10.202;2023-09-19T04:57:48;95606.66;;;14.43;100.00
73941;BME280;62294;48.554;10.202;2023-09-19T05:00:17;95609.75;;;14.30;100.00
73941;BME280;62294;48.554;10.202;2023-09-19T05:02:48;95599.06;;;14.30;100.00
73941;BME280;62294;48.554;10.202;2023-09-19T05:05:16;95611.44;;;14.41;100.00
73941;BME280;62294;48.554;10.202;2023-09-19T05:07:43;95612.53;;;14.40;100.00
73941;BME280;62294;48.554;10.202;2023-09-19T05:10:13;95622.97;;;14.41;100.00
73941;BME280;62294;48.554;10.202;2023-09-19T05:12:40;95624.53;;;14.37;100.00
73941;BME280;62294;48.554;10.202;2023-09-19T05:15:08;95618.88;;;14.34;100.00
73941;BME280;62294;48.554;10.202;2023-09-19T05:17:35;95623.78;;;14.42;100.00
73941;BME280;62294;48.554;10.202;2023-09-19T05:20:02;95622.19;;;14.46;100.00
73941;BME280;62294;48.554;10.202;2023-09-19T05:22:42;95627.53;;;14.46;100.00
73941;BME280;62294;48.554;10.202;2023-09-19T05:25:10;95624.31;;;14.44;100.00
73941;BME280;62294;48.554;10.202;2023-09-19T05:27:37;95618.97;;;14.44;100.00
73941;BME280;62294;48.554;10.202;2023-09-19T05:30:04;95619.72;;;14.39;100.00
73941;BME280;62294;48.554;10.202;2023-09-19T05:32:31;95622.97;;;14.41;100.00
73941;BME280;62294;48.554;10.202;2023-09-19T05:34:57;95635.84;;;14.44;100.00
73941;BME280;62294;48.554;10.202;2023-09-19T05:37:24;95640.66;;;14.47;100.00
73941;BME280;62294;48.554;10.202;2023-09-19T05:39:52;95641.41;;;14.43;100.00
73941;BME280;62294;48.554;10.202;2023-09-19T05:42:22;95640.16;;;14.50;100.00
73941;BME280;62294;48.554;10.202;2023-09-19T05:44:48;95649.59;;;14.58;100.00
73941;BME280;62294;48.554;10.202;2023-09-19T05:47:15;95648.94;;;14.46;100.00
73941;BME280;62294;48.554;10.202;2023-09-19T05:49:41;95656.69;;;14.47;100.00
73941;BME280;62294;48.554;10.202;2023-09-19T05:52:08;95658.13;;;14.55;100.00
73941;BME280;62294;48.554;10.202;2023-09-19T05:54:34;95661.56;;;14.50;100.00
73941;BME280;62294;48.554;10.202;2023-09-19T05:57:01;95667.59;;;14.41;100.00
73941;BME280;62294;48.554;10.202;2023-09-19T05:59:28;95664.50;;;14.49;100.00
73941;BME280;62294;48.554;10.202;2023-09-19T06:01:54;95673.44;;;14.38;100.00
73941;BME280;62294;48.554;10.202;2023-09-19T06:04:21;95675.56;;;14.36;100.00
73941;BME280;62294;48.554;10.202;2023-09-19T06:06:48;95678.84;;;14.43;100.00
73941;BME280;62294;48.554;10.202;2023-09-19T06:09:15;95678.34;;;14.46;100.00
73941;BME280;62294;48.554;10.202;2023-09-19T06:11:42;95679.56;;;14.60;100.00
73941;BME280;62294;48.554;10.202;2023-09-19T06:14:09;95677.72;;;14.65;100.00
73941;BME280;62294;48.554;10.202;2023-09-19T06:16:36;95680.31;;;14.82;100.00
73941;BME280;62294;48.554;10.202;2023-09-19T06:19:04;95690.75;;;15.15;100.00
73941;BME280;62294;48.554;10.202;2023-09-19T06:21:35;95702.00;;;15.96;100.00
73941;BME280;62294;48.554;10.202;2023-09-19T06:24:02;95717.22;;;16.37;100.00
73941;BME280;62294;48.554;10.202;2023-09-19T06:26:29;95741.63;;;16.36;100.00
73941;BME280;62294;48.554;10.202;2023-09-19T06:28:57;95751.81;;;15.87;100.00
73941;BME280;62294;48.554;10.202;2023-09-19T06:31:23;95757.94;;;16.34;100.00
73941;BME280;62294;48.554;10.202;2023-09-19T06:33:52;95784.19;;;16.74;100.00
73941;BME280;62294;48.554;10.202;2023-09-19T06:36:19;95784.84;;;17.36;100.00
73941;BME280;62294;48.554;10.202;2023-09-19T06:38:46;95809.31;;;17.50;100.00
73941;BME280;62294;48.554;10.202;2023-09-19T06:41:13;95831.09;;;17.73;100.00
73941;BME280;62294;48.554;10.202;2023-09-19T06:43:42;95844.25;;;18.15;100.00
73941;BME280;62294;48.554;10.202;2023-09-19T06:46:09;95844.81;;;17.52;100.00
73941;BME280;62294;48.554;10.202;2023-09-19T06:48:36;95859.06;;;17.98;100.00
73941;BME280;62294;48.554;10.202;2023-09-19T06:51:02;95864.69;;;17.61;100.00
73941;BME280;62294;48.554;10.202;2023-09-19T06:53:32;95861.13;;;16.58;100.00
73941;BME280;62294;48.554;10.202;2023-09-19T06:56:00;95859.16;;;16.49;100.00
73941;BME280;62294;48.554;10.202;2023-09-19T06:58:27;95852.03;;;16.22;100.00
73941;BME280;62294;48.554;10.202;2023-09-19T07:00:53;95847.97;;;16.20;100.00
73941;BME280;62294;48.554;10.202;2023-09-19T07:03:20;95857.09;;;16.56;100.00
73941;BME280;62294;48.554;10.202;2023-09-19T07:05:48;95856.09;;;16.72;100.00
73941;BME280;62294;48.554;10.202;2023-09-19T07:08:15;95860.22;;;16.94;100.00
73941;BME280;62294;48.554;10.202;2023-09-19T07:10:42;95871.63;;;16.65;100.00
73941;BME280;62294;48.554;10.202;2023-09-19T07:13:15;95871.19;;;16.88;100.00
73941;BME280;62294;48.554;10.202;2023-09-19T07:15:44;95882.78;;;17.03;100.00
73941;BME280;62294;48.554;10.202;2023-09-19T07:18:14;95886.44;;;16.82;100.00
73941;BME280;62294;48.554;10.202;2023-09-19T07:20:46;95889.19;;;16.92;100.00
73941;BME280;62294;48.554;10.202;2023-09-19T07:23:18;95895.50;;;16.66;100.00
73941;BME280;62294;48.554;10.202;2023-09-19T07:25:45;95890.00;;;16.46;100.00
73941;BME280;62294;48.554;10.202;2023-09-19T07:28:12;95890.81;;;16.47;100.00
73941;BME280;62294;48.554;10.202;2023-09-19T07:30:39;95892.78;;;16.61;100.00
73941;BME280;62294;48.554;10.202;2023-09-19T07:33:08;95900.22;;;16.49;100.00
73941;BME280;62294;48.554;10.202;2023-09-19T07:35:38;95904.16;;;16.78;100.00
73941;BME280;62294;48.554;10.202;2023-09-19T07:38:08;95912.34;;;17.09;100.00
73941;BME280;62294;48.554;10.202;2023-09-19T07:40:36;95920.34;;;17.65;100.00
73941;BME280;62294;48.554;10.202;2023-09-19T07:43:03;95915.25;;;18.29;100.00
73941;BME280;62294;48.554;10.202;2023-09-19T07:45:31;95925.41;;;17.62;100.00
73941;BME280;62294;48.554;10.202;2023-09-19T07:47:58;95926.94;;;17.38;100.00
73941;BME280;62294;48.554;10.202;2023-09-19T07:50:33;95929.03;;;17.16;100.00
73941;BME280;62294;48.554;10.202;2023-09-19T07:53:03;95927.22;;;17.41;100.00
73941;BME280;62294;48.554;10.202;2023-09-19T07:55:31;95940.28;;;18.05;100.00
73941;BME280;62294;48.554;10.202;2023-09-19T07:58:01;95944.28;;;18.07;100.00
73941;BME280;62294;48.554;10.202;2023-09-19T08:00:30;95953.94;;;17.73;100.00
73941;BME280;62294;48.554;10.202;2023-09-19T08:02:58;95967.66;;;17.71;100.00
73941;BME280;62294;48.554;10.202;2023-09-19T08:05:33;95968.75;;;17.96;100.00
73941;BME280;62294;48.554;10.202;2023-09-19T08:08:00;95981.34;;;19.21;100.00
73941;BME280;62294;48.554;10.202;2023-09-19T08:10:27;95990.31;;;19.70;100.00
73941;BME280;62294;48.554;10.202;2023-09-19T08:13:01;96001.13;;;19.65;100.00
73941;BME280;62294;48.554;10.202;2023-09-19T08:15:28;95999.78;;;18.64;100.00
73941;BME280;62294;48.554;10.202;2023-09-19T08:17:55;95999.69;;;17.93;100.00
73941;BME280;62294;48.554;10.202;2023-09-19T08:20:21;95997.50;;;17.80;100.00
73941;BME280;62294;48.554;10.202;2023-09-19T08:22:52;95999.78;;;17.46;100.00
73941;BME280;62294;48.554;10.202;2023-09-19T08:25:21;95998.63;;;17.27;100.00
73941;BME280;62294;48.554;10.202;2023-09-19T08:27:48;96001.72;;;17.56;100.00
73941;BME280;62294;48.554;10.202;2023-09-19T08:30:17;95995.28;;;17.52;100.00
73941;BME280;62294;48.554;10.202;2023-09-19T08:32:44;95999.09;;;17.71;100.00
73941;BME280;62294;48.554;10.202;2023-09-19T08:35:13;96004.00;;;17.27;100.00
73941;BME280;62294;48.554;10.202;2023-09-19T08:37:42;96003.66;;;17.09;100.00
73941;BME280;62294;48.554;10.202;2023-09-19T08:40:09;95990.34;;;17.39;100.00
73941;BME280;62294;48.554;10.202;2023-09-19T08:42:52;95998.56;;;17.74;100.00
73941;BME280;62294;48.554;10.202;2023-09-19T08:45:21;96010.53;;;18.49;100.00
73941;BME280;62294;48.554;10.202;2023-09-19T08:50:41;96018.06;;;18.77;100.00
73941;BME280;62294;48.554;10.202;2023-09-19T08:53:11;96040.31;;;19.48;100.00
73941;BME280;62294;48.554;10.202;2023-09-19T08:55:43;96034.81;;;20.27;100.00
73941;BME280;62294;48.554;10.202;2023-09-19T08:58:10;96048.09;;;20.08;100.00
73941;BME280;62294;48.554;10.202;2023-09-19T09:00:40;96039.84;;;20.72;100.00
73941;BME280;62294;48.554;10.202;2023-09-19T09:03:11;96037.47;;;21.28;100.00
73941;BME280;62294;48.554;10.202;2023-09-19T09:05:41;96048.28;;;21.52;100.00
73941;BME280;62294;48.554;10.202;2023-09-19T09:08:10;96040.75;;;21.96;100.00
73941;BME280;62294;48.554;10.202;2023-09-19T09:10:37;96047.59;;;22.49;100.00
73941;BME280;62294;48.554;10.202;2023-09-19T09:13:04;96049.59;;;22.63;100.00
73941;BME280;62294;48.554;10.202;2023-09-19T09:15:36;96051.56;;;22.89;100.00
73941;BME280;62294;48.554;10.202;2023-09-19T09:18:03;96046.31;;;23.71;100.00
73941;BME280;62294;48.554;10.202;2023-09-19T09:20:31;96057.28;;;23.79;100.00
73941;BME280;62294;48.554;10.202;2023-09-19T09:22:58;96076.81;;;25.47;100.00
73941;BME280;62294;48.554;10.202;2023-09-19T09:25:50;96084.50;;;25.22;100.00
73941;BME280;62294;48.554;10.202;2023-09-19T09:28:29;96071.91;;;25.35;100.00
73941;BME280;62294;48.554;10.202;2023-09-19T09:30:57;96076.84;;;24.31;100.00
73941;BME280;62294;48.554;10.202;2023-09-19T09:33:25;96074.84;;;23.55;100.00
73941;BME280;62294;48.554;10.202;2023-09-19T09:38:20;96070.59;;;23.35;100.00
73941;BME280;62294;48.554;10.202;2023-09-19T09:40:49;96075.38;;;22.36;100.00
73941;BME280;62294;48.554;10.202;2023-09-19T09:43:34;96072.59;;;21.57;100.00
73941;BME280;62294;48.554;10.202;2023-09-19T09:46:10;96076.94;;;22.80;100.00
73941;BME280;62294;48.554;10.202;2023-09-19T09:49:00;96079.31;;;22.68;100.00
73941;BME280;62294;48.554;10.202;2023-09-19T09:54:35;96082.81;;;22.07;100.00
73941;BME280;62294;48.554;10.202;2023-09-19T09:57:07;96072.00;;;22.07;100.00
73941;BME280;62294;48.554;10.202;2023-09-19T10:02:24;96079.63;;;21.58;100.00
73941;BME280;62294;48.554;10.202;2023-09-19T10:04:52;96088.34;;;21.50;100.00
73941;BME280;62294;48.554;10.202;2023-09-19T10:07:49;96085.50;;;21.65;100.00
73941;BME280;62294;48.554;10.202;2023-09-19T10:10:30;96087.53;;;22.20;100.00
73941;BME280;62294;48.554;10.202;2023-09-19T10:13:06;96088.94;;;22.36;100.00
73941;BME280;62294;48.554;10.202;2023-09-19T10:15:34;96094.44;;;22.31;100.00
73941;BME280;62294;48.554;10.202;2023-09-19T10:18:06;96098.81;;;21.56;100.00
73941;BME280;62294;48.554;10.202;2023-09-19T10:20:36;96089.59;;;20.66;100.00
73941;BME280;62294;48.554;10.202;2023-09-19T10:23:10;96083.75;;;21.98;100.00
73941;BME280;62294;48.554;10.202;2023-09-19T10:25:42;96099.31;;;22.29;100.00
73941;BME280;62294;48.554;10.202;2023-09-19T10:28:11;96093.13;;;22.66;100.00
73941;BME280;62294;48.554;10.202;2023-09-19T10:30:47;96093.34;;;23.93;100.00
73941;BME280;62294;48.554;10.202;2023-09-19T10:33:16;96104.53;;;24.68;100.00
73941;BME280;62294;48.554;10.202;2023-09-19T10:35:49;96100.59;;;25.94;100.00
73941;BME280;62294;48.554;10.202;2023-09-19T10:38:23;96118.91;;;26.67;100.00
73941;BME280;62294;48.554;10.202;2023-09-19T10:40:52;96114.31;;;24.56;100.00
73941;BME280;62294;48.554;10.202;2023-09-19T10:43:20;96112.59;;;22.68;100.00
73941;BME280;62294;48.554;10.202;2023-09-19T10:45:49;96109.25;;;24.41;100.00
73941;BME280;62294;48.554;10.202;2023-09-19T10:48:16;96110.47;;;24.08;100.00
73941;BME280;62294;48.554;10.202;2023-09-19T10:50:53;96129.59;;;24.30;100.00
73941;BME280;62294;48.554;10.202;2023-09-19T10:53:27;96123.72;;;22.06;100.00
73941;BME280;62294;48.554;10.202;2023-09-19T10:55:58;96132.19;;;20.35;100.00
73941;BME280;62294;48.554;10.202;2023-09-19T10:58:31;96116.63;;;22.10;100.00
73941;BME280;62294;48.554;10.202;2023-09-19T11:01:04;96119.84;;;23.42;100.00
73941;BME280;62294;48.554;10.202;2023-09-19T11:03:39;96131.75;;;23.73;100.00
73941;BME280;62294;48.554;10.202;2023-09-19T11:06:18;96128.53;;;23.85;100.00
73941;BME280;62294;48.554;10.202;2023-09-19T11:09:01;96130.09;;;21.39;100.00
73941;BME280;62294;48.554;10.202;2023-09-19T11:11:44;96124.34;;;22.21;100.00
73941;BME280;62294;48.554;10.202;2023-09-19T11:30:36;96102.41;;;22.41;100.00
73941;BME280;62294;48.554;10.202;2023-09-19T11:33:27;96100.09;;;21.93;100.00
73941;BME280;62294;48.554;10.202;2023-09-19T11:36:13;96096.19;;;22.59;100.00
73941;BME280;62294;48.554;10.202;2023-09-19T11:43:52;96106.78;;;24.53;100.00
73941;BME280;62294;48.554;10.202;2023-09-19T11:46:25;96102.91;;;24.81;100.00
73941;BME280;62294;48.554;10.202;2023-09-19T11:48:53;96105.56;;;25.17;100.00
73941;BME280;62294;48.554;10.202;2023-09-19T11:51:24;96114.69;;;23.86;100.00
73941;BME280;62294;48.554;10.202;2023-09-19T11:53:56;96099.38;;;22.43;100.00
73941;BME280;62294;48.554;10.202;2023-09-19T11:56:25;96100.44;;;20.61;100.00
73941;BME280;62294;48.554;10.202;2023-09-19T11:58:55;96096.22;;;20.84;100.00
73941;BME280;62294;48.554;10.202;2023-09-19T12:01:26;96092.69;;;19.96;100.00
73941;BME280;62294;48.554;10.202;2023-09-19T12:03:57;96089.75;;;21.71;100.00
73941;BME280;62294;48.554;10.202;2023-09-19T12:06:27;96097.44;;;21.35;100.00
73941;BME280;62294;48.554;10.202;2023-09-19T12:08:53;96075.91;;;20.91;100.00
73941;BME280;62294;48.554;10.202;2023-09-19T12:11:21;96065.97;;;21.15;100.00
73941;BME280;62294;48.554;10.202;2023-09-19T12:13:50;96070.41;;;22.06;100.00
73941;BME280;62294;48.554;10.202;2023-09-19T12:16:19;96069.06;;;23.29;100.00
73941;BME280;62294;48.554;10.202;2023-09-19T12:18:50;96073.56;;;23.79;100.00
73941;BME280;62294;48.554;10.202;2023-09-19T12:24:12;96077.88;;;21.67;100.00
73941;BME280;62294;48.554;10.202;2023-09-19T12:26:46;96073.78;;;21.46;100.00
73941;BME280;62294;48.554;10.202;2023-09-19T12:29:20;96082.53;;;22.09;100.00
73941;BME280;62294;48.554;10.202;2023-09-19T12:31:48;96072.63;;;21.75;100.00
73941;BME280;62294;48.554;10.202;2023-09-19T12:34:20;96071.34;;;21.97;100.00
73941;BME280;62294;48.554;10.202;2023-09-19T12:36:47;96066.63;;;21.83;100.00
73941;BME280;62294;48.554;10.202;2023-09-19T12:39:23;96063.50;;;21.95;100.00
73941;BME280;62294;48.554;10.202;2023-09-19T12:41:51;96060.06;;;21.42;100.00
73941;BME280;62294;48.554;10.202;2023-09-19T12:44:19;96059.50;;;22.30;100.00
73941;BME280;62294;48.554;10.202;2023-09-19T12:46:46;96057.09;;;22.28;100.00
73941;BME280;62294;48.554;10.202;2023-09-19T12:49:17;96047.28;;;21.71;100.00
73941;BME280;62294;48.554;10.202;2023-09-19T12:51:48;96050.19;;;22.54;100.00
73941;BME280;62294;48.554;10.202;2023-09-19T12:54:16;96047.22;;;22.19;100.00
73941;BME280;62294;48.554;10.202;2023-09-19T12:56:44;96049.88;;;20.72;100.00
73941;BME280;62294;48.554;10.202;2023-09-19T12:59:16;96046.56;;;22.08;100.00
73941;BME280;62294;48.554;10.202;2023-09-19T13:01:43;96043.34;;;22.06;100.00
73941;BME280;62294;48.554;10.202;2023-09-19T13:04:19;96047.59;;;22.12;100.00
73941;BME280;62294;48.554;10.202;2023-09-19T13:06:49;96056.16;;;22.56;100.00
73941;BME280;62294;48.554;10.202;2023-09-19T13:09:17;96059.31;;;22.64;100.00
73941;BME280;62294;48.554;10.202;2023-09-19T13:11:44;96057.63;;;22.49;100.00
73941;BME280;62294;48.554;10.202;2023-09-19T13:19:38;96055.19;;;22.85;100.00
73941;BME280;62294;48.554;10.202;2023-09-19T13:25:14;96044.09;;;22.68;100.00
73941;BME280;62294;48.554;10.202;2023-09-19T13:27:57;96039.47;;;22.49;100.00
73941;BME280;62294;48.554;10.202;2023-09-19T13:30:28;96040.06;;;22.65;100.00
73941;BME280;62294;48.554;10.202;2023-09-19T13:33:10;96035.66;;;22.32;100.00
73941;BME280;62294;48.554;10.202;2023-09-19T13:35:40;96042.03;;;22.04;100.00
73941;BME280;62294;48.554;10.202;2023-09-19T13:38:07;96049.63;;;22.57;100.00
73941;BME280;62294;48.554;10.202;2023-09-19T13:40:39;96035.38;;;22.33;100.00
73941;BME280;62294;48.554;10.202;2023-09-19T13:43:08;96032.59;;;22.20;100.00
73941;BME280;62294;48.554;10.202;2023-09-19T13:45:34;96038.09;;;22.33;100.00
73941;BME280;62294;48.554;10.202;2023-09-19T13:48:01;96040.13;;;22.41;100.00